Time;durP1;ratioP1;P1;durP2;ratioP2;P2;SDS_P1;SDS_P2;PMS_P1;PMS_P2;Temp;Humidity;BMP_temperature;BMP_pressure;BME280_temperature;BME280_humidity;BME280_pressure;Samples;Min_cycle;Max_cycle;Signal;HPM_P1;HPM_P2
2022/04/11 00:00:19;;;;;;;5.88;4.40;;;;;;;;;;5010936;28;20204;-82
2022/04/11 00:02:46;;;;;;;7.03;4.72;;;;;;;;;;5011136;28;20211;-80
2022/04/11 00:05:14;;;;;;;6.60;4.80;;;;;;;;;;5011731;28;20203;-80
2022/04/11 00:07:41;;;;;;;6.30;4.72;;;;;;;;;;5025015;28;20223;-78
2022/04/11 00:10:09;;;;;;;6.25;4.63;;;;;;;;;;5025743;28;20199;-78
2022/04/11 00:12:37;;;;;;;8.05;4.80;;;;;;;;;;5018496;28;20676;-78
2022/04/11 00:15:07;;;;;;;6.45;4.00;;;;;;;;;;5013973;28;20756;-76
2022/04/11 00:17:34;;;;;;;5.78;5.18;;;;;;;;;;5010874;28;20252;-79
2022/04/11 00:20:01;;;;;;;6.47;4.93;;;;;;;;;;5010882;28;20203;-80
2022/04/11 00:22:30;;;;;;;5.88;4.00;;;;;;;;;;5011016;28;20200;-82
2022/04/11 00:24:57;;;;;;;4.50;3.88;;;;;;;;;;5011197;28;20211;-79
2022/04/11 00:27:24;;;;;;;6.10;4.07;;;;;;;;;;5029524;28;20215;-79
2022/04/11 00:29:51;;;;;;;5.43;3.60;;;;;;;;;;5032281;28;20227;-78
2022/04/11 00:32:18;;;;;;;5.53;3.88;;;;;;;;;;5028376;28;20199;-82
2022/04/11 00:34:45;;;;;;;5.13;3.88;;;;;;;;;;5018548;28;20203;-79
2022/04/11 00:37:12;;;;;;;7.25;4.72;;;;;;;;;;5015091;28;20226;-82
2022/04/11 00:39:41;;;;;;;6.40;4.70;;;;;;;;;;5010466;28;20223;-79
2022/04/11 00:42:09;;;;;;;5.95;3.70;;;;;;;;;;5011002;28;20200;-78
2022/04/11 00:44:36;;;;;;;5.22;4.05;;;;;;;;;;5010975;28;20661;-84
2022/04/11 00:47:03;;;;;;;4.50;4.10;;;;;;;;;;5011129;28;20645;-82
2022/04/11 00:49:30;;;;;;;8.23;4.43;;;;;;;;;;5025080;28;20215;-78
2022/04/11 00:51:58;;;;;;;7.80;5.18;;;;;;;;;;5032444;28;20199;-77
2022/04/11 00:54:26;;;;;;;5.10;4.60;;;;;;;;;;5030942;28;20195;-83
2022/04/11 00:56:54;;;;;;;6.00;4.00;;;;;;;;;;5017676;28;20212;-78
2022/04/11 00:59:22;;;;;;;5.90;4.00;;;;;;;;;;5003280;28;20212;-79
2022/04/11 01:01:49;;;;;;;11.63;4.50;;;;;;;;;;5029822;28;20210;-80
2022/04/11 01:04:24;;;;;;;7.78;4.53;;;;;;;;;;5029999;28;20211;-88
2022/04/11 01:06:51;;;;;;;5.97;4.47;;;;;;;;;;5030256;28;20199;-79
2022/04/11 01:09:18;;;;;;;6.10;4.05;;;;;;;;;;5030259;28;20227;-81
2022/04/11 01:11:45;;;;;;;6.47;4.28;;;;;;;;;;5031084;28;20550;-77
2022/04/11 01:14:13;;;;;;;8.27;4.45;;;;;;;;;;5032124;28;20205;-82
2022/04/11 01:16:41;;;;;;;5.07;3.80;;;;;;;;;;5032365;28;20219;-79
2022/04/11 01:19:08;;;;;;;8.02;4.25;;;;;;;;;;5020237;28;20617;-77
2022/04/11 01:21:36;;;;;;;5.05;3.92;;;;;;;;;;5019353;28;20203;-79
2022/04/11 01:24:03;;;;;;;6.15;4.60;;;;;;;;;;5030175;28;20200;-80
2022/04/11 01:26:31;;;;;;;5.13;4.18;;;;;;;;;;5029953;28;20200;-79
2022/04/11 01:28:59;;;;;;;4.45;3.42;;;;;;;;;;5029767;28;20506;-77
2022/04/11 01:31:26;;;;;;;6.28;4.35;;;;;;;;;;5030378;28;20195;-83
2022/04/11 01:33:53;;;;;;;4.97;3.47;;;;;;;;;;5030252;28;20199;-80
2022/04/11 01:36:20;;;;;;;5.32;4.20;;;;;;;;;;5031640;28;20202;-85
2022/04/11 01:38:49;;;;;;;6.20;3.75;;;;;;;;;;5031732;28;20693;-80
2022/04/11 01:41:16;;;;;;;7.40;4.47;;;;;;;;;;5020857;28;20204;-77
2022/04/11 01:43:45;;;;;;;6.30;3.97;;;;;;;;;;5017760;28;20199;-80
2022/04/11 01:46:12;;;;;;;4.03;3.50;;;;;;;;;;5010876;28;20594;-82
2022/04/11 01:48:39;;;;;;;3.78;3.30;;;;;;;;;;5009578;28;20307;-80
2022/04/11 01:51:07;;;;;;;5.88;3.85;;;;;;;;;;5010032;28;20536;-81
2022/04/11 01:53:34;;;;;;;4.45;3.45;;;;;;;;;;5014065;28;20200;-77
2022/04/11 01:56:02;;;;;;;7.40;3.60;;;;;;;;;;5016411;28;20223;-77
2022/04/11 01:58:29;;;;;;;4.85;3.60;;;;;;;;;;5035088;28;20315;-81
2022/04/11 02:00:58;;;;;;;4.95;4.00;;;;;;;;;;5035105;28;20210;-82
2022/04/11 02:03:26;;;;;;;9.20;3.90;;;;;;;;;;5026413;28;20205;-76
2022/04/11 02:05:53;;;;;;;4.50;3.30;;;;;;;;;;5021002;28;20199;-79
2022/04/11 02:08:20;;;;;;;5.50;3.22;;;;;;;;;;5015366;28;20327;-77
2022/04/11 02:10:48;;;;;;;4.03;3.63;;;;;;;;;;4995756;28;20215;-80
2022/04/11 02:13:17;;;;;;;4.25;3.53;;;;;;;;;;5013092;28;20536;-81
2022/04/11 02:15:44;;;;;;;5.55;3.63;;;;;;;;;;5013056;28;20204;-78
2022/04/11 02:18:11;;;;;;;5.70;3.55;;;;;;;;;;5013425;28;20220;-79
2022/04/11 02:20:38;;;;;;;5.57;3.70;;;;;;;;;;5033804;28;20196;-78
2022/04/11 02:23:05;;;;;;;6.13;3.92;;;;;;;;;;5034803;28;20200;-78
2022/04/11 02:25:34;;;;;;;5.28;3.90;;;;;;;;;;5029171;28;20211;-79
2022/04/11 02:28:01;;;;;;;4.03;3.60;;;;;;;;;;5020170;28;21665;-78
2022/04/11 02:30:30;;;;;;;4.28;3.60;;;;;;;;;;5008245;28;20207;-81
2022/04/11 02:32:58;;;;;;;7.00;3.58;;;;;;;;;;5014990;28;20558;-77
2022/04/11 02:35:25;;;;;;;5.57;4.50;;;;;;;;;;5032432;28;20195;-82
2022/04/11 02:37:52;;;;;;;6.75;4.10;;;;;;;;;;5032424;28;20247;-82
2022/04/11 02:40:19;;;;;;;4.97;3.80;;;;;;;;;;5033022;28;20221;-77
2022/04/11 02:42:47;;;;;;;6.30;3.63;;;;;;;;;;5033202;28;20203;-79
2022/04/11 02:45:15;;;;;;;6.30;3.70;;;;;;;;;;5016941;28;20727;-77
2022/04/11 02:47:44;;;;;;;4.95;3.80;;;;;;;;;;5031909;28;20576;-77
2022/04/11 02:50:11;;;;;;;6.10;4.00;;;;;;;;;;5019969;28;20562;-80
2022/04/11 02:52:38;;;;;;;5.75;3.65;;;;;;;;;;5023251;28;20214;-78
2022/04/11 02:55:06;;;;;;;6.97;3.50;;;;;;;;;;5031697;28;20210;-80
2022/04/11 02:57:34;;;;;;;5.25;3.22;;;;;;;;;;5032048;28;20726;-80
2022/04/11 03:00:01;;;;;;;7.57;3.53;;;;;;;;;;5032363;28;20199;-78
2022/04/11 03:02:29;;;;;;;7.50;3.70;;;;;;;;;;5032014;28;20196;-81
2022/04/11 03:04:57;;;;;;;5.70;3.85;;;;;;;;;;5032907;28;20199;-79
2022/04/11 03:07:27;;;;;;;7.72;3.45;;;;;;;;;;5033889;28;20204;-80
2022/04/11 03:09:54;;;;;;;4.05;3.28;;;;;;;;;;5033759;28;20665;-80
2022/04/11 03:12:21;;;;;;;4.60;3.47;;;;;;;;;;5019605;28;20284;-78
2022/04/11 03:14:49;;;;;;;5.13;3.30;;;;;;;;;;5019626;28;20227;-79
2022/04/11 03:17:16;;;;;;;4.70;3.75;;;;;;;;;;4994035;28;20216;-80
2022/04/11 03:19:43;;;;;;;6.90;3.65;;;;;;;;;;5011460;28;20216;-81
2022/04/11 03:22:12;;;;;;;4.75;3.65;;;;;;;;;;5011895;28;20206;-80
2022/04/11 03:24:39;;;;;;;7.70;4.07;;;;;;;;;;5012189;28;20217;-77
2022/04/11 03:27:06;;;;;;;5.55;3.65;;;;;;;;;;5018902;28;20210;-80
2022/04/11 03:29:33;;;;;;;3.92;3.63;;;;;;;;;;5015840;28;20242;-80
2022/04/11 03:32:01;;;;;;;4.03;3.35;;;;;;;;;;5033551;28;20209;-82
2022/04/11 03:34:28;;;;;;;6.13;3.97;;;;;;;;;;5022958;28;20204;-80
2022/04/11 03:36:55;;;;;;;4.65;3.70;;;;;;;;;;5019163;28;20679;-79
2022/04/11 03:39:23;;;;;;;3.97;3.55;;;;;;;;;;5012819;28;20228;-78
2022/04/11 03:41:50;;;;;;;3.83;3.40;;;;;;;;;;5011256;28;20661;-80
2022/04/11 03:44:17;;;;;;;4.60;4.10;;;;;;;;;;5011545;28;20202;-81
2022/04/11 03:46:45;;;;;;;3.85;3.25;;;;;;;;;;5011892;28;20243;-80
2022/04/11 03:49:12;;;;;;;4.90;3.30;;;;;;;;;;5012962;28;20228;-79
2022/04/11 03:51:39;;;;;;;3.67;3.38;;;;;;;;;;5032874;28;20211;-80
2022/04/11 03:54:06;;;;;;;5.70;3.30;;;;;;;;;;5033228;28;20561;-80
2022/04/11 03:56:35;;;;;;;9.10;3.80;;;;;;;;;;5025496;28;20196;-78
2022/04/11 03:59:02;;;;;;;4.70;3.13;;;;;;;;;;5018653;28;20222;-82
2022/04/11 04:01:29;;;;;;;9.48;3.70;;;;;;;;;;5026403;28;20280;-77
2022/04/11 04:03:56;;;;;;;6.13;3.25;;;;;;;;;;5031133;28;20206;-79
2022/04/11 04:06:23;;;;;;;6.53;3.28;;;;;;;;;;5033832;28;20561;-78
2022/04/11 04:08:50;;;;;;;4.78;3.25;;;;;;;;;;5031081;28;20219;-79
2022/04/11 04:11:17;;;;;;;3.63;3.05;;;;;;;;;;5032254;28;20587;-78
2022/04/11 04:13:46;;;;;;;5.47;2.92;;;;;;;;;;5031847;28;20695;-79
2022/04/11 04:16:13;;;;;;;5.68;3.50;;;;;;;;;;5032657;28;20195;-82
2022/04/11 04:18:40;;;;;;;3.30;2.83;;;;;;;;;;5027724;28;20669;-78
2022/04/11 04:21:08;;;;;;;3.90;3.50;;;;;;;;;;5018397;28;20188;-80
2022/04/11 04:23:35;;;;;;;7.53;3.70;;;;;;;;;;5022944;28;20298;-79
2022/04/11 04:26:03;;;;;;;4.40;3.60;;;;;;;;;;5030373;28;20573;-78
2022/04/11 04:28:30;;;;;;;5.13;3.65;;;;;;;;;;5030210;28;20238;-80
2022/04/11 04:30:58;;;;;;;5.45;3.53;;;;;;;;;;5030741;28;20199;-77
2022/04/11 04:33:26;;;;;;;5.22;3.40;;;;;;;;;;5030862;28;20203;-77
2022/04/11 04:35:53;;;;;;;5.22;3.33;;;;;;;;;;5031437;28;20204;-77
2022/04/11 04:38:20;;;;;;;5.22;3.38;;;;;;;;;;5032386;28;20624;-77
2022/04/11 04:40:47;;;;;;;5.70;3.40;;;;;;;;;;5030209;28;20199;-77
2022/04/11 04:43:15;;;;;;;4.32;3.42;;;;;;;;;;5018226;28;20550;-77
2022/04/11 04:45:42;;;;;;;10.18;3.78;;;;;;;;;;5020840;28;20196;-78
2022/04/11 04:48:10;;;;;;;3.92;3.40;;;;;;;;;;5029677;28;20219;-78
2022/04/11 04:50:40;;;;;;;5.90;2.80;;;;;;;;;;5030206;28;20206;-77
2022/04/11 04:53:07;;;;;;;3.90;3.40;;;;;;;;;;5030351;28;20199;-77
2022/04/11 04:55:34;;;;;;;4.78;3.50;;;;;;;;;;5030621;28;20206;-76
2022/04/11 04:58:01;;;;;;;7.43;2.67;;;;;;;;;;5030879;28;20227;-78
2022/04/11 05:00:28;;;;;;;5.63;3.70;;;;;;;;;;5032017;28;20196;-78
2022/04/11 05:02:55;;;;;;;5.50;3.13;;;;;;;;;;5032431;28;20286;-78
2022/04/11 05:05:24;;;;;;;6.10;3.65;;;;;;;;;;5018644;28;20670;-77
2022/04/11 05:07:51;;;;;;;7.18;3.40;;;;;;;;;;5018091;28;20207;-77
2022/04/11 05:10:18;;;;;;;3.72;3.20;;;;;;;;;;5009880;28;20262;-78
2022/04/11 05:12:46;;;;;;;5.85;3.30;;;;;;;;;;5010152;28;20204;-77
2022/04/11 05:15:14;;;;;;;6.63;3.70;;;;;;;;;;4993105;28;20208;-78
2022/04/11 05:17:41;;;;;;;4.15;3.75;;;;;;;;;;5010771;28;20231;-78
2022/04/11 05:20:10;;;;;;;5.00;3.50;;;;;;;;;;5017240;28;20556;-79
2022/04/11 05:22:39;;;;;;;5.25;3.10;;;;;;;;;;5014583;28;20203;-78
2022/04/11 05:25:06;;;;;;;4.78;3.60;;;;;;;;;;5031983;28;20661;-79
2022/04/11 05:27:33;;;;;;;5.32;3.00;;;;;;;;;;5024260;28;21565;-79
2022/04/11 05:30:01;;;;;;;5.45;3.80;;;;;;;;;;5021407;28;21016;-78
2022/04/11 05:32:28;;;;;;;5.60;3.40;;;;;;;;;;5014721;28;20207;-77
2022/04/11 05:34:55;;;;;;;4.95;3.40;;;;;;;;;;4996409;28;20220;-78
2022/04/11 05:37:22;;;;;;;5.70;3.90;;;;;;;;;;5013578;28;20203;-77
2022/04/11 05:39:50;;;;;;;6.07;3.88;;;;;;;;;;5014732;28;20196;-80
2022/04/11 05:42:18;;;;;;;5.30;3.45;;;;;;;;;;5016701;28;20644;-77
2022/04/11 05:44:45;;;;;;;4.63;3.10;;;;;;;;;;5035493;28;20199;-81
2022/04/11 05:47:12;;;;;;;6.47;3.45;;;;;;;;;;5035485;28;20203;-83
2022/04/11 05:49:40;;;;;;;5.57;3.33;;;;;;;;;;5026145;28;20302;-81
2022/04/11 05:52:07;;;;;;;6.03;3.53;;;;;;;;;;5021401;28;20680;-80
2022/04/11 05:54:37;;;;;;;5.38;3.00;;;;;;;;;;5012061;28;20254;-81
2022/04/11 05:57:06;;;;;;;3.80;3.22;;;;;;;;;;5033042;28;20199;-80
2022/04/11 05:59:33;;;;;;;6.20;3.53;;;;;;;;;;5033068;28;20230;-80
2022/04/11 06:02:00;;;;;;;4.25;3.72;;;;;;;;;;5030883;28;20195;-78
2022/04/11 06:04:27;;;;;;;7.72;4.13;;;;;;;;;;5032569;28;20191;-81
2022/04/11 06:06:54;;;;;;;4.65;3.28;;;;;;;;;;5023068;28;20796;-78
2022/04/11 06:09:21;;;;;;;5.10;3.60;;;;;;;;;;5020435;28;20247;-82
2022/04/11 06:11:49;;;;;;;3.97;3.42;;;;;;;;;;5013848;28;20207;-80
2022/04/11 06:14:20;;;;;;;5.63;3.80;;;;;;;;;;5013021;28;20210;-81
2022/04/11 06:16:47;;;;;;;6.33;3.67;;;;;;;;;;5016872;28;20552;-81
2022/04/11 06:19:14;;;;;;;4.38;3.28;;;;;;;;;;5033582;28;20489;-79
2022/04/11 06:21:42;;;;;;;5.37;3.77;;;;;;;;;;5032861;28;20217;-82
2022/04/11 06:24:09;;;;;;;13.23;4.10;;;;;;;;;;5035132;28;20442;-85
2022/04/11 06:26:36;;;;;;;7.40;3.80;;;;;;;;;;5034723;28;20449;-79
2022/04/11 06:29:03;;;;;;;3.53;2.90;;;;;;;;;;5026746;28;20484;-82
2022/04/11 06:31:32;;;;;;;3.67;3.23;;;;;;;;;;5019938;28;20458;-82
2022/04/11 06:33:59;;;;;;;5.90;3.80;;;;;;;;;;5015616;28;20463;-81
2022/04/11 06:36:26;;;;;;;6.67;3.60;;;;;;;;;;5012297;28;20955;-85
2022/04/11 06:38:53;;;;;;;7.93;4.20;;;;;;;;;;5011802;28;20494;-83
2022/04/11 06:41:23;;;;;;;5.33;3.40;;;;;;;;;;5012607;28;20447;-80
2022/04/11 06:43:50;;;;;;;5.03;3.70;;;;;;;;;;5030858;28;20454;-80
2022/04/11 06:46:17;;;;;;;8.03;3.50;;;;;;;;;;5033701;28;20983;-82
2022/04/11 06:48:46;;;;;;;4.50;3.67;;;;;;;;;;5033854;28;20462;-82
2022/04/11 06:51:13;;;;;;;6.93;3.90;;;;;;;;;;5030705;28;20463;-79
2022/04/11 06:53:40;;;;;;;6.07;3.90;;;;;;;;;;5019905;28;20923;-80
2022/04/11 06:56:07;;;;;;;5.90;3.27;;;;;;;;;;5021039;28;20534;-81
2022/04/11 06:58:34;;;;;;;6.40;4.10;;;;;;;;;;5031538;28;20481;-81
2022/04/11 07:01:01;;;;;;;6.03;4.00;;;;;;;;;;5031856;28;20457;-80
2022/04/11 07:03:32;;;;;;;4.50;3.43;;;;;;;;;;5031872;28;20495;-84
2022/04/11 07:06:00;;;;;;;5.30;3.30;;;;;;;;;;5032298;28;20446;-84
2022/04/11 07:08:27;;;;;;;5.00;3.83;;;;;;;;;;5032630;28;20848;-79
2022/04/11 07:10:55;;;;;;;9.17;4.27;;;;;;;;;;5031609;28;20468;-82
2022/04/11 07:13:22;;;;;;;4.40;3.73;;;;;;;;;;5014989;28;20542;-82
2022/04/11 07:15:49;;;;;;;8.77;4.13;;;;;;;;;;5022000;28;20534;-87
2022/04/11 07:18:16;;;;;;;4.77;3.57;;;;;;;;;;5019064;28;20478;-80
2022/04/11 07:20:43;;;;;;;4.23;3.20;;;;;;;;;;5029419;28;20452;-80
2022/04/11 07:23:12;;;;;;;5.83;4.10;;;;;;;;;;5031324;28;20441;-82
2022/04/11 07:25:39;;;;;;;3.93;3.50;;;;;;;;;;5027772;28;20454;-80
2022/04/11 07:28:06;;;;;;;4.20;3.27;;;;;;;;;;5032530;28;20488;-82
2022/04/11 07:30:34;;;;;;;5.33;4.03;;;;;;;;;;5027655;28;20908;-80
2022/04/11 07:33:01;;;;;;;4.27;3.87;;;;;;;;;;5026458;28;20442;-77
2022/04/11 07:35:28;;;;;;;6.93;3.80;;;;;;;;;;5018678;28;20447;-77
2022/04/11 07:37:57;;;;;;;4.90;3.83;;;;;;;;;;5014865;28;20838;-77
2022/04/11 07:40:26;;;;;;;5.40;3.50;;;;;;;;;;5011589;28;20942;-77
2022/04/11 07:42:53;;;;;;;5.40;3.77;;;;;;;;;;5028456;28;20946;-76
2022/04/11 07:45:21;;;;;;;4.30;3.47;;;;;;;;;;5031617;28;20456;-76
2022/04/11 07:47:48;;;;;;;5.00;4.27;;;;;;;;;;5030877;28;20482;-75
2022/04/11 07:50:15;;;;;;;6.30;3.40;;;;;;;;;;5031431;28;20461;-80
2022/04/11 07:52:44;;;;;;;4.90;3.90;;;;;;;;;;5033038;28;21034;-76
2022/04/11 07:55:12;;;;;;;4.40;3.80;;;;;;;;;;5013489;28;20453;-76
2022/04/11 07:57:41;;;;;;;4.07;3.50;;;;;;;;;;5017286;28;20970;-75
2022/04/11 08:00:09;;;;;;;5.80;4.27;;;;;;;;;;5020624;28;20476;-75
2022/04/11 08:02:37;;;;;;;6.50;3.50;;;;;;;;;;5030590;28;20492;-76
2022/04/11 08:05:05;;;;;;;4.70;3.83;;;;;;;;;;5012994;28;20856;-74
2022/04/11 08:07:33;;;;;;;4.47;4.03;;;;;;;;;;5030830;28;20484;-75
2022/04/11 08:10:01;;;;;;;4.80;3.73;;;;;;;;;;5013772;28;20457;-75
2022/04/11 08:12:28;;;;;;;4.47;3.67;;;;;;;;;;5031756;28;20785;-75
2022/04/11 08:14:57;;;;;;;10.37;5.50;;;;;;;;;;5032798;28;20434;-75
2022/04/11 08:17:24;;;;;;;5.70;4.37;;;;;;;;;;5032930;28;20510;-75
2022/04/11 08:19:51;;;;;;;4.63;3.67;;;;;;;;;;5019473;28;20479;-75
2022/04/11 08:22:18;;;;;;;6.80;4.03;;;;;;;;;;5019419;28;20447;-75
2022/04/11 08:24:46;;;;;;;5.70;4.03;;;;;;;;;;5012649;28;20450;-75
2022/04/11 08:27:13;;;;;;;5.17;4.23;;;;;;;;;;5030827;28;20803;-75
2022/04/11 08:29:40;;;;;;;5.07;3.83;;;;;;;;;;5030673;28;20478;-75
2022/04/11 08:32:09;;;;;;;4.77;3.53;;;;;;;;;;5031570;28;20477;-76
2022/04/11 08:34:36;;;;;;;5.20;3.50;;;;;;;;;;5031264;28;20910;-75
2022/04/11 08:37:03;;;;;;;6.10;3.63;;;;;;;;;;5032434;28;20446;-75
2022/04/11 08:39:30;;;;;;;5.70;3.53;;;;;;;;;;5032585;28;20486;-75
2022/04/11 08:42:00;;;;;;;4.80;3.33;;;;;;;;;;5022197;28;20436;-75
2022/04/11 08:44:28;;;;;;;3.93;3.20;;;;;;;;;;5018322;28;20435;-75
2022/04/11 08:46:56;;;;;;;4.30;3.10;;;;;;;;;;5028457;28;20857;-75
2022/04/11 08:49:25;;;;;;;4.47;2.67;;;;;;;;;;5030432;28;20459;-75
2022/04/11 08:51:52;;;;;;;4.50;3.00;;;;;;;;;;5030439;28;20716;-74
2022/04/11 08:54:19;;;;;;;7.27;3.70;;;;;;;;;;5031212;28;20441;-75
2022/04/11 08:56:47;;;;;;;5.43;2.90;;;;;;;;;;5030492;28;20537;-74
2022/04/11 08:59:15;;;;;;;3.50;2.80;;;;;;;;;;5032110;28;20856;-75
2022/04/11 09:01:42;;;;;;;3.07;2.77;;;;;;;;;;5035513;28;20447;-77
2022/04/11 09:04:09;;;;;;;4.10;2.67;;;;;;;;;;5009689;28;20928;-76
2022/04/11 09:06:38;;;;;;;4.70;2.70;;;;;;;;;;5022563;28;20442;-77
2022/04/11 09:09:05;;;;;;;4.40;2.57;;;;;;;;;;5030786;28;20458;-77
2022/04/11 09:11:34;;;;;;;3.37;2.67;;;;;;;;;;5033932;28;20451;-79
2022/04/11 09:14:02;;;;;;;4.13;3.07;;;;;;;;;;5033930;28;20445;-79
2022/04/11 09:16:29;;;;;;;5.17;3.10;;;;;;;;;;5034517;28;20445;-77
2022/04/11 09:18:57;;;;;;;4.70;3.63;;;;;;;;;;5033689;28;20490;-79
2022/04/11 09:21:25;;;;;;;5.13;3.07;;;;;;;;;;5015900;28;20466;-78
2022/04/11 09:24:13;;;;;;;5.20;3.70;;;;;;;;;;5018259;28;20437;-79
2022/04/11 09:26:41;;;;;;;4.90;2.80;;;;;;;;;;5014015;28;20431;-79
2022/04/11 09:29:08;;;;;;;7.70;3.90;;;;;;;;;;5020258;28;20486;-79
2022/04/11 09:31:35;;;;;;;4.50;3.30;;;;;;;;;;5027744;28;20465;-80
2022/04/11 09:34:14;;;;;;;3.50;3.20;;;;;;;;;;5029802;28;20457;-82
2022/04/11 09:36:47;;;;;;;5.10;3.47;;;;;;;;;;5033181;28;20444;-81
2022/04/11 09:39:15;;;;;;;6.07;3.60;;;;;;;;;;5033946;28;20484;-79
2022/04/11 09:41:43;;;;;;;5.00;3.43;;;;;;;;;;5033228;28;20450;-81
2022/04/11 09:44:20;;;;;;;6.07;3.60;;;;;;;;;;5018060;28;20440;-80
2022/04/11 09:46:47;;;;;;;5.37;3.37;;;;;;;;;;5035401;28;20511;-78
2022/04/11 09:49:24;;;;;;;4.83;3.20;;;;;;;;;;5029962;28;20458;-83
2022/04/11 09:52:06;;;;;;;3.73;3.20;;;;;;;;;;5003023;28;20461;-82
2022/04/11 09:54:35;;;;;;;3.53;3.23;;;;;;;;;;5000858;28;20777;-80
2022/04/11 09:57:02;;;;;;;7.10;3.20;;;;;;;;;;4996181;28;20435;-80
2022/04/11 09:59:30;;;;;;;4.73;3.40;;;;;;;;;;5013248;28;20482;-81
2022/04/11 10:01:57;;;;;;;3.17;2.83;;;;;;;;;;5013787;28;20443;-80
2022/04/11 10:04:25;;;;;;;4.33;3.00;;;;;;;;;;5014752;28;20963;-82
2022/04/11 10:06:53;;;;;;;3.73;3.10;;;;;;;;;;5035019;28;20839;-80
2022/04/11 10:09:23;;;;;;;7.97;3.40;;;;;;;;;;5035165;28;20485;-81
2022/04/11 10:11:52;;;;;;;3.80;3.20;;;;;;;;;;5014026;28;20481;-80
2022/04/11 10:14:25;;;;;;;7.37;2.50;;;;;;;;;;5020637;28;20438;-84
2022/04/11 10:16:53;;;;;;;5.73;3.17;;;;;;;;;;5018405;28;20443;-79
2022/04/11 10:19:23;;;;;;;4.10;3.07;;;;;;;;;;5012687;28;20991;-81
2022/04/11 10:21:51;;;;;;;5.27;3.60;;;;;;;;;;5012658;28;20446;-81
2022/04/11 10:24:20;;;;;;;3.90;2.90;;;;;;;;;;5012990;28;20959;-82
2022/04/11 10:26:49;;;;;;;4.50;3.30;;;;;;;;;;5012391;28;20444;-83
2022/04/11 10:32:15;;;;;;;3.80;2.83;;;;;;;;;;5099089;27;20571;-79
2022/04/11 10:34:46;;;;;;;4.43;3.00;;;;;;;;;;5101331;28;20458;-79
2022/04/11 10:37:13;;;;;;;3.97;3.17;;;;;;;;;;5103288;28;20596;-79
2022/04/11 10:39:43;;;;;;;6.30;3.40;;;;;;;;;;5102346;28;20459;-78
2022/04/11 10:42:11;;;;;;;4.93;2.53;;;;;;;;;;5103146;28;20453;-79
2022/04/11 10:44:40;;;;;;;3.80;2.80;;;;;;;;;;5102621;28;20570;-79
2022/04/11 10:47:23;;;;;;;3.07;2.73;;;;;;;;;;5103078;28;20431;-79
2022/04/11 10:50:06;;;;;;;3.33;2.73;;;;;;;;;;5099114;28;20641;-81
2022/04/11 10:52:35;;;;;;;5.57;2.60;;;;;;;;;;5100455;28;20446;-80
2022/04/11 10:55:05;;;;;;;5.53;3.00;;;;;;;;;;5103188;28;20439;-79
2022/04/11 10:57:33;;;;;;;4.37;3.20;;;;;;;;;;5102964;28;20450;-80
2022/04/11 11:00:07;;;;;;;5.07;3.20;;;;;;;;;;5101812;28;21212;-79
2022/04/11 11:02:49;;;;;;;6.63;3.17;;;;;;;;;;5101385;28;20435;-77
2022/04/11 11:05:23;;;;;;;3.60;2.80;;;;;;;;;;5100852;28;20444;-79
2022/04/11 11:08:13;;;;;;;4.00;2.80;;;;;;;;;;5101908;28;20465;-78
2022/04/11 11:10:41;;;;;;;3.83;3.10;;;;;;;;;;5104939;28;20482;-80
2022/04/11 11:13:23;;;;;;;4.50;3.10;;;;;;;;;;5105616;28;20843;-78
2022/04/11 11:15:51;;;;;;;4.33;2.57;;;;;;;;;;5106460;28;20438;-79
2022/04/11 11:18:18;;;;;;;5.47;2.90;;;;;;;;;;5107010;28;20488;-78
2022/04/11 11:20:51;;;;;;;3.00;2.70;;;;;;;;;;5107436;28;20449;-80
2022/04/11 11:23:23;;;;;;;3.10;2.80;;;;;;;;;;5108470;28;20436;-79
2022/04/11 11:25:50;;;;;;;6.27;2.40;;;;;;;;;;5105409;28;20437;-79
2022/04/11 11:28:17;;;;;;;3.30;2.90;;;;;;;;;;5102345;28;20494;-80
2022/04/11 11:30:45;;;;;;;3.30;2.53;;;;;;;;;;5103465;28;20893;-78
2022/04/11 11:33:14;;;;;;;3.83;3.20;;;;;;;;;;5104683;28;20441;-79
2022/04/11 11:35:47;;;;;;;4.03;2.90;;;;;;;;;;5104449;28;20452;-77
2022/04/11 11:38:14;;;;;;;5.17;2.87;;;;;;;;;;5104666;28;20462;-78
2022/04/11 11:40:53;;;;;;;7.80;3.30;;;;;;;;;;5106824;28;20537;-77
2022/04/11 11:43:20;;;;;;;5.03;3.37;;;;;;;;;;5094278;28;20480;-77
2022/04/11 11:45:47;;;;;;;4.17;2.83;;;;;;;;;;5094345;28;20835;-77
2022/04/11 11:48:23;;;;;;;4.13;3.10;;;;;;;;;;5093374;28;20459;-77
2022/04/11 11:50:51;;;;;;;3.77;3.23;;;;;;;;;;5088472;28;20480;-77
2022/04/11 11:53:18;;;;;;;5.07;2.67;;;;;;;;;;5089214;28;20430;-78
2022/04/11 11:55:55;;;;;;;4.33;3.03;;;;;;;;;;5092012;28;20713;-78
2022/04/11 11:58:23;;;;;;;3.93;3.03;;;;;;;;;;5090460;28;20483;-77
2022/04/11 12:00:50;;;;;;;3.33;3.03;;;;;;;;;;5092025;28;20438;-77
2022/04/11 12:05:59;;;;;;;5.13;2.93;;;;;;;;;;5092732;28;20464;-75
2022/04/11 12:08:30;;;;;;;6.00;2.63;;;;;;;;;;5093721;28;20458;-76
2022/04/11 12:10:59;;;;;;;2.67;2.47;;;;;;;;;;5092955;28;20889;-77
2022/04/11 12:13:27;;;;;;;5.27;3.40;;;;;;;;;;5087755;28;20447;-77
2022/04/11 12:15:54;;;;;;;10.10;3.67;;;;;;;;;;5087627;28;20442;-79
2022/04/11 12:18:22;;;;;;;8.23;3.20;;;;;;;;;;5091018;28;20460;-79
2022/04/11 12:20:49;;;;;;;5.07;3.10;;;;;;;;;;5091632;28;20440;-79
2022/04/11 12:23:18;;;;;;;4.33;3.00;;;;;;;;;;5091316;28;20433;-79
2022/04/11 12:25:51;;;;;;;3.53;2.80;;;;;;;;;;5090774;28;20484;-82
2022/04/11 12:28:20;;;;;;;3.40;2.67;;;;;;;;;;5092209;28;20549;-80
2022/04/11 12:30:48;;;;;;;3.53;2.87;;;;;;;;;;5093215;28;20489;-78
2022/04/11 12:33:30;;;;;;;4.10;3.10;;;;;;;;;;5093048;28;20444;-83
2022/04/11 12:36:12;;;;;;;3.53;2.67;;;;;;;;;;5086628;28;20434;-80
2022/04/11 12:38:40;;;;;;;5.23;2.70;;;;;;;;;;5086954;28;20510;-78
2022/04/11 12:41:09;;;;;;;3.40;2.67;;;;;;;;;;5091272;28;20442;-79
2022/04/11 12:43:59;;;;;;;3.23;2.70;;;;;;;;;;5090785;28;20434;-82
2022/04/11 12:46:26;;;;;;;5.20;3.10;;;;;;;;;;5090984;28;20436;-81
2022/04/11 12:48:55;;;;;;;6.00;3.10;;;;;;;;;;5091572;28;20547;-80
2022/04/11 12:51:22;;;;;;;3.93;2.83;;;;;;;;;;5091477;28;20511;-80
2022/04/11 12:53:49;;;;;;;4.63;3.07;;;;;;;;;;5091957;28;20457;-82
2022/04/11 12:56:17;;;;;;;5.00;3.60;;;;;;;;;;5091521;28;20428;-77
2022/04/11 12:58:45;;;;;;;4.27;2.80;;;;;;;;;;5087001;28;20449;-76
2022/04/11 13:01:12;;;;;;;5.20;3.20;;;;;;;;;;5084816;28;20438;-79
2022/04/11 13:03:41;;;;;;;6.00;3.70;;;;;;;;;;5086199;28;21068;-77
2022/04/11 13:06:08;;;;;;;6.47;3.63;;;;;;;;;;5086211;28;20447;-78
2022/04/11 13:08:35;;;;;;;5.27;3.80;;;;;;;;;;5086762;28;20458;-79
2022/04/11 13:11:03;;;;;;;6.27;3.40;;;;;;;;;;5086841;28;20526;-80
2022/04/11 13:13:30;;;;;;;4.00;2.60;;;;;;;;;;5079417;28;20485;-81
2022/04/11 13:18:39;;;;;;;2.90;2.60;;;;;;;;;;5083454;28;20449;-82
2022/04/11 13:21:06;;;;;;;3.53;2.40;;;;;;;;;;5086295;28;21114;-81
2022/04/11 13:23:34;;;;;;;4.10;3.00;;;;;;;;;;5086640;28;20438;-85
2022/04/11 13:26:01;;;;;;;4.70;2.63;;;;;;;;;;5086086;28;20462;-81
2022/04/11 13:28:28;;;;;;;3.40;2.73;;;;;;;;;;5086766;28;20816;-83
2022/04/11 13:30:55;;;;;;;3.50;2.90;;;;;;;;;;5086629;28;20531;-80
2022/04/11 13:33:24;;;;;;;4.10;2.70;;;;;;;;;;5088643;28;20568;-83
2022/04/11 13:35:51;;;;;;;4.53;3.20;;;;;;;;;;5088584;28;20441;-85
2022/04/11 13:38:18;;;;;;;3.20;2.40;;;;;;;;;;5082131;28;21016;-83
2022/04/11 13:40:49;;;;;;;3.80;2.47;;;;;;;;;;5082527;28;20795;-80
2022/04/11 13:43:17;;;;;;;4.33;2.50;;;;;;;;;;5085825;28;20784;-82
2022/04/11 13:45:44;;;;;;;3.60;2.70;;;;;;;;;;5086163;28;20450;-82
2022/04/11 13:48:13;;;;;;;2.40;2.20;;;;;;;;;;5086187;28;20469;-80
2022/04/11 13:50:44;;;;;;;7.97;3.00;;;;;;;;;;5086367;28;20435;-81
2022/04/11 13:53:12;;;;;;;4.93;2.87;;;;;;;;;;5086465;28;20465;-82
2022/04/11 13:55:40;;;;;;;5.53;3.40;;;;;;;;;;5087947;28;21189;-82
2022/04/11 13:58:07;;;;;;;4.13;3.10;;;;;;;;;;5089390;28;20467;-82
2022/04/11 14:00:39;;;;;;;4.00;3.20;;;;;;;;;;5087289;28;20435;-85
2022/04/11 14:03:07;;;;;;;2.90;2.60;;;;;;;;;;5085943;28;20511;-86
2022/04/11 14:05:34;;;;;;;4.30;2.97;;;;;;;;;;5088323;28;20459;-81
2022/04/11 14:08:02;;;;;;;5.80;3.53;;;;;;;;;;5089165;28;20798;-81
2022/04/11 14:10:29;;;;;;;6.13;3.27;;;;;;;;;;5089567;28;20462;-79
2022/04/11 14:12:56;;;;;;;3.33;2.97;;;;;;;;;;5090023;28;20490;-78
2022/04/11 14:15:24;;;;;;;6.13;2.60;;;;;;;;;;5089387;28;20805;-81
2022/04/11 14:17:51;;;;;;;5.40;2.90;;;;;;;;;;5090241;28;20466;-80
2022/04/11 14:20:18;;;;;;;3.47;2.73;;;;;;;;;;5091308;28;20457;-82
2022/04/11 14:22:45;;;;;;;3.40;2.53;;;;;;;;;;5088152;28;20739;-80
2022/04/11 14:25:14;;;;;;;3.50;2.63;;;;;;;;;;5085423;28;20916;-83
2022/04/11 14:27:41;;;;;;;3.33;2.60;;;;;;;;;;5087417;28;20443;-81
2022/04/11 14:30:09;;;;;;;4.10;2.90;;;;;;;;;;5088879;28;20435;-81
2022/04/11 14:32:37;;;;;;;3.03;2.63;;;;;;;;;;5089211;28;20486;-80
2022/04/11 14:35:05;;;;;;;3.20;2.87;;;;;;;;;;5089144;28;21005;-82
2022/04/11 14:37:33;;;;;;;3.80;2.50;;;;;;;;;;5089174;28;20450;-82
2022/04/11 14:40:00;;;;;;;5.67;2.50;;;;;;;;;;5090438;28;20457;-82
2022/04/11 14:42:28;;;;;;;3.10;2.80;;;;;;;;;;5091282;28;20476;-82
2022/04/11 14:44:56;;;;;;;8.00;2.70;;;;;;;;;;5089505;28;20824;-81
2022/04/11 14:47:23;;;;;;;3.80;2.30;;;;;;;;;;5085124;28;20438;-83
2022/04/11 14:49:50;;;;;;;2.90;2.43;;;;;;;;;;5086200;28;20430;-83
2022/04/11 14:52:17;;;;;;;3.10;2.80;;;;;;;;;;5088889;28;20478;-81
2022/04/11 14:54:44;;;;;;;2.90;2.50;;;;;;;;;;5088966;28;20457;-81
2022/04/11 14:57:12;;;;;;;3.90;2.47;;;;;;;;;;5089144;28;20460;-82